PWSweather.com
Personal Weather Stations
Station Observations
UISISLE1
Newport, Isle ofWight, ISLE OF WIGHT PO30 2JX

NewportIsle ofWight, ISLE OF WIGHT PO30 2JX

Lat: 50.72, Lon: -1.27

Elevation: 45

Station Type: Davis Vantage Pro Plus

http://www.isleofwightweather.co.uk

High Low Average
Temperature 58.8°F14.9°F 46.3°F7.9°F 52.1°F11.2°F
Dew Point 50.3°F10.2°F 43.5°F6.4°F 47.1°F8.4°F
Winds 12.3 mph SW19.8 mph SW 0.2 mph 0.3 mph 6.7 mph 10.8 mph
Wind Gusts 23.0 mph37.0 mph 1.0 mph1.6 mph 11.0 mph17.7 mph
Humidity 91% 70% 83%
Pressure 30.10 in1019.30 in 29.98 in1015.20 in -
Precipitation 0.00 in0.00 in - -
Hour Temp Dew Point Humidity Winds Wind Gusts Pressure Precip Precip Rate Daily Precip Total
12:00 AM 47.7°F8.7°C 45.2°F7.3°C 91% 1.7 mph WNW2.7 kmh WNW 2.1 mph3.4 kmh 29.98 in1015.2 mb - 0.00 in0.0 mm 0.00 in0.0 mm
12:15 AM 47.4°F8.6°C 44.9°F7.2°C 91% 2.6 mph WNW4.2 kmh WNW 4.1 mph6.6 kmh 29.98 in1015.2 mb - 0.00 in0.0 mm 0.00 in0.0 mm
12:30 AM 47.3°F8.5°C 44.8°F7.1°C 91% 2.0 mph WSW3.2 kmh WSW 4.1 mph6.6 kmh 29.99 in1015.6 mb - 0.00 in0.0 mm 0.00 in0.0 mm
12:45 AM 47.1°F8.4°C 44.6°F7.0°C 91% 2.8 mph W4.5 kmh W 5.1 mph8.2 kmh 29.99 in1015.6 mb - 0.00 in0.0 mm 0.00 in0.0 mm
01:00 AM 47.1°F8.4°C 44.6°F7.0°C 91% 3.2 mph WNW5.1 kmh WNW 5.1 mph8.2 kmh 29.99 in1015.6 mb - 0.00 in0.0 mm 0.00 in0.0 mm
01:15 AM 46.9°F8.3°C 44.4°F6.9°C 91% 1.0 mph WSW1.6 kmh WSW 1.0 mph1.6 kmh 29.99 in1015.6 mb - 0.00 in0.0 mm 0.00 in0.0 mm
01:30 AM 46.8°F8.2°C 44.0°F6.7°C 90% 2.0 mph W3.2 kmh W 5.1 mph8.2 kmh 29.99 in1015.6 mb - 0.00 in0.0 mm 0.00 in0.0 mm
01:45 AM 46.6°F8.1°C 43.9°F6.6°C 90% 2.6 mph SW4.2 kmh SW 4.1 mph6.6 kmh 29.99 in1015.6 mb - 0.00 in0.0 mm 0.00 in0.0 mm
02:00 AM 46.6°F8.1°C 43.8°F6.6°C 90% 2.8 mph W4.5 kmh W 4.1 mph6.6 kmh 30.00 in1015.9 mb - 0.00 in0.0 mm 0.00 in0.0 mm
02:15 AM 46.4°F8.0°C 43.6°F6.4°C 90% 2.1 mph W3.4 kmh W 3.1 mph5.0 kmh 30.00 in1015.9 mb - 0.00 in0.0 mm 0.00 in0.0 mm
02:30 AM 46.3°F7.9°C 43.5°F6.4°C 90% 3.2 mph W5.1 kmh W 4.0 mph6.4 kmh 30.00 in1015.9 mb - 0.00 in0.0 mm 0.00 in0.0 mm
02:45 AM 46.5°F8.1°C 44.0°F6.7°C 91% 2.0 mph W3.2 kmh W 4.0 mph6.4 kmh 30.00 in1015.9 mb - 0.00 in0.0 mm 0.00 in0.0 mm
03:00 AM 46.8°F8.2°C 44.3°F6.8°C 91% 3.3 mph WSW5.3 kmh WSW 5.0 mph8.0 kmh 30.00 in1015.9 mb - 0.00 in0.0 mm 0.00 in0.0 mm
03:15 AM 47.0°F8.3°C 44.5°F6.9°C 91% 2.8 mph WSW4.5 kmh WSW 5.0 mph8.0 kmh 30.00 in1015.9 mb - 0.00 in0.0 mm 0.00 in0.0 mm
03:30 AM 47.3°F8.5°C 44.8°F7.1°C 91% 4.0 mph W6.4 kmh W 6.0 mph9.7 kmh 30.00 in1015.9 mb - 0.00 in0.0 mm 0.00 in0.0 mm
03:45 AM 47.5°F8.6°C 45.0°F7.2°C 91% 1.5 mph WSW2.4 kmh WSW 3.1 mph5.0 kmh 30.00 in1015.9 mb - 0.00 in0.0 mm 0.00 in0.0 mm
04:00 AM 47.6°F8.7°C 45.1°F7.3°C 91% 1.5 mph W2.4 kmh W 2.1 mph3.4 kmh 30.01 in1016.3 mb - 0.00 in0.0 mm 0.00 in0.0 mm
04:15 AM 47.7°F8.7°C 45.2°F7.3°C 91% 3.0 mph WSW4.8 kmh WSW 7.0 mph11.3 kmh 30.01 in1016.3 mb - 0.00 in0.0 mm 0.00 in0.0 mm
04:30 AM 47.8°F8.8°C 45.3°F7.4°C 91% 1.1 mph SW1.8 kmh SW 4.0 mph6.4 kmh 30.01 in1016.3 mb - 0.00 in0.0 mm 0.00 in0.0 mm
04:45 AM 47.9°F8.8°C 45.1°F7.3°C 90% 0.2 mph WSW0.3 kmh WSW 2.0 mph3.2 kmh 30.01 in1016.3 mb - 0.00 in0.0 mm 0.00 in0.0 mm
05:00 AM 48.0°F8.9°C 45.2°F7.3°C 90% 2.1 mph W3.4 kmh W 4.1 mph6.6 kmh 30.02 in1016.6 mb - 0.00 in0.0 mm 0.00 in0.0 mm
05:15 AM 48.2°F9.0°C 45.1°F7.3°C 89% 2.3 mph W3.7 kmh W 6.0 mph9.7 kmh 30.03 in1016.9 mb - 0.00 in0.0 mm 0.00 in0.0 mm
05:30 AM 48.4°F9.1°C 45.3°F7.4°C 89% 2.4 mph W3.9 kmh W 3.0 mph4.8 kmh 30.04 in1017.3 mb - 0.00 in0.0 mm 0.00 in0.0 mm
05:45 AM 48.7°F9.3°C 45.6°F7.6°C 89% 2.7 mph WSW4.3 kmh WSW 5.0 mph8.0 kmh 30.04 in1017.3 mb - 0.00 in0.0 mm 0.00 in0.0 mm
06:00 AM 49.1°F9.5°C 46.0°F7.8°C 89% 2.7 mph SW4.3 kmh SW 5.0 mph8.0 kmh 30.04 in1017.3 mb - 0.00 in0.0 mm 0.00 in0.0 mm
06:15 AM 49.5°F9.7°C 46.4°F8.0°C 89% 3.9 mph WSW6.3 kmh WSW 7.0 mph11.3 kmh 30.05 in1017.6 mb - 0.00 in0.0 mm 0.00 in0.0 mm
06:30 AM 50.0°F10.0°C 46.9°F8.3°C 89% 1.8 mph WSW2.9 kmh WSW 4.1 mph6.6 kmh 30.05 in1017.6 mb - 0.00 in0.0 mm 0.00 in0.0 mm
06:45 AM 50.2°F10.1°C 46.8°F8.2°C 88% 5.4 mph WSW8.7 kmh WSW 7.2 mph11.6 kmh 30.06 in1017.9 mb - 0.00 in0.0 mm 0.00 in0.0 mm
07:00 AM 50.6°F10.3°C 46.9°F8.3°C 87% 5.0 mph W8.0 kmh W 9.3 mph15.0 kmh 30.06 in1017.9 mb - 0.00 in0.0 mm 0.00 in0.0 mm
07:15 AM 50.9°F10.5°C 47.2°F8.4°C 87% 6.5 mph WSW10.5 kmh WSW 10.0 mph16.1 kmh 30.07 in1018.3 mb - 0.00 in0.0 mm 0.00 in0.0 mm
07:30 AM 51.6°F10.9°C 47.5°F8.6°C 86% 5.2 mph SW8.4 kmh SW 7.2 mph11.6 kmh 30.07 in1018.3 mb - 0.00 in0.0 mm 0.00 in0.0 mm
07:45 AM 52.0°F11.1°C 47.3°F8.5°C 84% 5.0 mph WSW8.0 kmh WSW 6.2 mph10.0 kmh 30.06 in1017.9 mb - 0.00 in0.0 mm 0.00 in0.0 mm
08:00 AM 52.5°F11.4°C 47.8°F8.8°C 84% 5.6 mph WNW9.0 kmh WNW 11.3 mph18.2 kmh 30.07 in1018.3 mb - 0.00 in0.0 mm 0.00 in0.0 mm
08:15 AM 52.4°F11.3°C 47.1°F8.4°C 82% 5.3 mph WSW8.5 kmh WSW 8.0 mph12.9 kmh 30.07 in1018.3 mb - 0.00 in0.0 mm 0.00 in0.0 mm
08:30 AM 52.6°F11.4°C 47.6°F8.7°C 83% 6.5 mph WNW10.5 kmh WNW 11.3 mph18.2 kmh 30.08 in1018.6 mb - 0.00 in0.0 mm 0.00 in0.0 mm
08:45 AM 52.8°F11.6°C 47.5°F8.6°C 82% 5.2 mph S8.4 kmh S 8.0 mph12.9 kmh 30.08 in1018.6 mb - 0.00 in0.0 mm 0.00 in0.0 mm
09:00 AM 53.9°F12.2°C 48.2°F9.0°C 81% 7.6 mph W12.2 kmh W 15.5 mph24.9 kmh 30.09 in1019.0 mb - 0.00 in0.0 mm 0.00 in0.0 mm
09:15 AM 54.9°F12.7°C 48.5°F9.2°C 79% 9.1 mph W14.6 kmh W 11.0 mph17.7 kmh 30.09 in1019.0 mb - 0.00 in0.0 mm 0.00 in0.0 mm
09:30 AM 54.8°F12.7°C 48.4°F9.1°C 79% 5.1 mph SW8.2 kmh SW 7.0 mph11.3 kmh 30.09 in1019.0 mb - 0.00 in0.0 mm 0.00 in0.0 mm
09:45 AM 55.6°F13.1°C 48.8°F9.3°C 78% 8.8 mph WSW14.2 kmh WSW 13.0 mph20.9 kmh 30.09 in1019.0 mb - 0.00 in0.0 mm 0.00 in0.0 mm
10:00 AM 55.8°F13.2°C 48.3°F9.1°C 76% 9.2 mph SW14.8 kmh SW 16.0 mph25.7 kmh 30.09 in1019.0 mb - 0.00 in0.0 mm 0.00 in0.0 mm
10:15 AM 56.0°F13.3°C 48.5°F9.2°C 76% 9.9 mph WSW15.9 kmh WSW 20.0 mph32.2 kmh 30.09 in1019.0 mb - 0.00 in0.0 mm 0.00 in0.0 mm
10:30 AM 57.8°F14.3°C 50.3°F10.2°C 76% 9.1 mph WSW14.6 kmh WSW 14.0 mph22.5 kmh 30.08 in1018.6 mb - 0.00 in0.0 mm 0.00 in0.0 mm
10:45 AM 57.9°F14.4°C 49.3°F9.6°C 73% 8.0 mph W12.9 kmh W 11.3 mph18.2 kmh 30.09 in1019.0 mb - 0.00 in0.0 mm 0.00 in0.0 mm
11:00 AM 58.0°F14.4°C 49.4°F9.7°C 73% 9.1 mph SW14.6 kmh SW 13.0 mph20.9 kmh 30.09 in1019.0 mb - 0.00 in0.0 mm 0.00 in0.0 mm
11:15 AM 58.3°F14.6°C 49.3°F9.6°C 72% 7.8 mph SW12.6 kmh SW 10.0 mph16.1 kmh 30.09 in1019.0 mb - 0.00 in0.0 mm 0.00 in0.0 mm
11:30 AM 57.9°F14.4°C 48.9°F9.4°C 72% 7.9 mph SSW12.7 kmh SSW 16.0 mph25.7 kmh 30.09 in1019.0 mb - 0.00 in0.0 mm 0.00 in0.0 mm
11:45 AM 58.2°F14.6°C 50.0°F10.0°C 74% 8.4 mph W13.5 kmh W 14.4 mph23.2 kmh 30.09 in1019.0 mb - 0.00 in0.0 mm 0.00 in0.0 mm
12:00 PM 58.3°F14.6°C 49.3°F9.6°C 72% 7.0 mph WNW11.3 kmh WNW 15.5 mph24.9 kmh 30.09 in1019.0 mb - 0.00 in0.0 mm 0.00 in0.0 mm
12:15 PM 58.6°F14.8°C 49.6°F9.8°C 72% 7.2 mph W11.6 kmh W 13.0 mph20.9 kmh 30.10 in1019.3 mb - 0.00 in0.0 mm 0.00 in0.0 mm
12:30 PM 58.5°F14.7°C 49.1°F9.5°C 71% 8.3 mph WSW13.4 kmh WSW 9.3 mph15.0 kmh 30.10 in1019.3 mb - 0.00 in0.0 mm 0.00 in0.0 mm
12:45 PM 58.5°F14.7°C 49.2°F9.6°C 71% 9.2 mph SW14.8 kmh SW 16.0 mph25.7 kmh 30.10 in1019.3 mb - 0.00 in0.0 mm 0.00 in0.0 mm
01:00 PM 58.8°F14.9°C 49.4°F9.7°C 71% 9.9 mph WNW15.9 kmh WNW 13.4 mph21.6 kmh 30.09 in1019.0 mb - 0.00 in0.0 mm 0.00 in0.0 mm
01:15 PM 58.1°F14.5°C 48.4°F9.1°C 70% 10.4 mph SW16.7 kmh SW 19.0 mph30.6 kmh 30.09 in1019.0 mb - 0.00 in0.0 mm 0.00 in0.0 mm
01:30 PM 57.5°F14.2°C 48.9°F9.4°C 73% 8.4 mph WSW13.5 kmh WSW 13.4 mph21.6 kmh 30.09 in1019.0 mb - 0.00 in0.0 mm 0.00 in0.0 mm
01:45 PM 56.6°F13.7°C 48.4°F9.1°C 74% 9.1 mph SW14.6 kmh SW 18.0 mph29.0 kmh 30.09 in1019.0 mb - 0.00 in0.0 mm 0.00 in0.0 mm
02:00 PM 56.6°F13.7°C 48.8°F9.3°C 75% 9.8 mph SW15.8 kmh SW 15.0 mph24.1 kmh 30.09 in1019.0 mb - 0.00 in0.0 mm 0.00 in0.0 mm
02:15 PM 57.4°F14.1°C 50.2°F10.1°C 77% 10.6 mph W17.1 kmh W 17.5 mph28.2 kmh 30.08 in1018.6 mb - 0.00 in0.0 mm 0.00 in0.0 mm
02:30 PM 56.7°F13.7°C 49.6°F9.8°C 77% 10.4 mph SW16.7 kmh SW 11.0 mph17.7 kmh 30.08 in1018.6 mb - 0.00 in0.0 mm 0.00 in0.0 mm
02:45 PM 56.3°F13.5°C 49.1°F9.5°C 77% 9.3 mph SW15.0 kmh SW 19.0 mph30.6 kmh 30.08 in1018.6 mb - 0.00 in0.0 mm 0.00 in0.0 mm
03:00 PM 56.8°F13.8°C 49.3°F9.6°C 76% 11.1 mph WSW17.9 kmh WSW 14.0 mph22.5 kmh 30.07 in1018.3 mb - 0.00 in0.0 mm 0.00 in0.0 mm
03:15 PM 56.9°F13.8°C 49.1°F9.5°C 75% 12.2 mph W19.6 kmh W 17.5 mph28.2 kmh 30.08 in1018.6 mb - 0.00 in0.0 mm 0.00 in0.0 mm
03:30 PM 56.6°F13.7°C 48.8°F9.3°C 75% 12.1 mph W19.5 kmh W 21.6 mph34.8 kmh 30.07 in1018.3 mb - 0.00 in0.0 mm 0.00 in0.0 mm
03:45 PM 56.0°F13.3°C 47.8°F8.8°C 74% 6.7 mph WSW10.8 kmh WSW 9.0 mph14.5 kmh 30.07 in1018.3 mb - 0.00 in0.0 mm 0.00 in0.0 mm
04:00 PM 55.8°F13.2°C 47.7°F8.7°C 74% 10.4 mph WSW16.7 kmh WSW 16.0 mph25.7 kmh 30.07 in1018.3 mb - 0.00 in0.0 mm 0.00 in0.0 mm
04:15 PM 55.3°F12.9°C 47.5°F8.6°C 75% 9.6 mph WNW15.4 kmh WNW 15.5 mph24.9 kmh 30.06 in1017.9 mb - 0.00 in0.0 mm 0.00 in0.0 mm
04:30 PM 55.0°F12.8°C 47.2°F8.4°C 75% 11.2 mph W18.0 kmh W 15.0 mph24.1 kmh 30.07 in1018.3 mb - 0.00 in0.0 mm 0.00 in0.0 mm
04:45 PM 54.3°F12.4°C 46.9°F8.3°C 76% 11.7 mph W18.8 kmh W 23.0 mph37.0 kmh 30.06 in1017.9 mb - 0.00 in0.0 mm 0.00 in0.0 mm
05:00 PM 54.2°F12.3°C 47.5°F8.6°C 78% 7.4 mph SW11.9 kmh SW 13.4 mph21.6 kmh 30.06 in1017.9 mb - 0.00 in0.0 mm 0.00 in0.0 mm
05:15 PM 53.9°F12.2°C 47.2°F8.4°C 78% 10.6 mph WSW17.1 kmh WSW 13.4 mph21.6 kmh 30.06 in1017.9 mb - 0.00 in0.0 mm 0.00 in0.0 mm
05:30 PM 53.4°F11.9°C 47.0°F8.3°C 79% 8.9 mph WSW14.3 kmh WSW 12.4 mph20.0 kmh 30.07 in1018.3 mb - 0.00 in0.0 mm 0.00 in0.0 mm
05:45 PM 52.8°F11.6°C 47.2°F8.4°C 81% 8.4 mph W13.5 kmh W 16.5 mph26.6 kmh 30.07 in1018.3 mb - 0.00 in0.0 mm 0.00 in0.0 mm
06:00 PM 52.5°F11.4°C 47.1°F8.4°C 82% 7.2 mph SW11.6 kmh SW 15.5 mph24.9 kmh 30.06 in1017.9 mb - 0.00 in0.0 mm 0.00 in0.0 mm
06:15 PM 51.8°F11.0°C 46.5°F8.1°C 82% 12.3 mph SW19.8 kmh SW 22.0 mph35.4 kmh 30.06 in1017.9 mb - 0.00 in0.0 mm 0.00 in0.0 mm
06:30 PM 51.4°F10.8°C 46.4°F8.0°C 83% 9.4 mph SW15.1 kmh SW 16.0 mph25.7 kmh 30.06 in1017.9 mb - 0.00 in0.0 mm 0.00 in0.0 mm
06:45 PM 51.1°F10.6°C 46.7°F8.2°C 85% 7.1 mph SSW11.4 kmh SSW 11.0 mph17.7 kmh 30.07 in1018.3 mb - 0.00 in0.0 mm 0.00 in0.0 mm
07:00 PM 50.9°F10.5°C 46.6°F8.1°C 85% 9.3 mph WSW15.0 kmh WSW 13.4 mph21.6 kmh 30.05 in1017.6 mb - 0.00 in0.0 mm 0.00 in0.0 mm
07:15 PM 50.9°F10.5°C 46.8°F8.2°C 86% 6.1 mph WSW9.8 kmh WSW 12.4 mph20.0 kmh 30.06 in1017.9 mb - 0.00 in0.0 mm 0.00 in0.0 mm
07:30 PM 50.8°F10.4°C 46.8°F8.2°C 86% 6.2 mph W10.0 kmh W 12.0 mph19.3 kmh 30.06 in1017.9 mb - 0.00 in0.0 mm 0.00 in0.0 mm
07:45 PM 50.9°F10.5°C 46.9°F8.3°C 86% 4.7 mph W7.6 kmh W 8.0 mph12.9 kmh 30.07 in1018.3 mb - 0.00 in0.0 mm 0.00 in0.0 mm
08:00 PM 50.8°F10.4°C 46.8°F8.2°C 86% 6.8 mph WSW10.9 kmh WSW 12.0 mph19.3 kmh 30.07 in1018.3 mb - 0.00 in0.0 mm 0.00 in0.0 mm
08:15 PM 50.7°F10.4°C 46.7°F8.2°C 86% 11.1 mph SW17.9 kmh SW 16.0 mph25.7 kmh 30.07 in1018.3 mb - 0.00 in0.0 mm 0.00 in0.0 mm
08:30 PM 50.7°F10.4°C 47.0°F8.3°C 87% 8.1 mph S13.0 kmh S 11.3 mph18.2 kmh 30.07 in1018.3 mb - 0.00 in0.0 mm 0.00 in0.0 mm
08:45 PM 50.8°F10.4°C 47.1°F8.4°C 87% 9.6 mph WSW15.4 kmh WSW 13.0 mph20.9 kmh 30.07 in1018.3 mb - 0.00 in0.0 mm 0.00 in0.0 mm
09:00 PM 50.9°F10.5°C 47.2°F8.4°C 87% 6.7 mph WSW10.8 kmh WSW 8.0 mph12.9 kmh 30.08 in1018.6 mb - 0.00 in0.0 mm 0.00 in0.0 mm
09:15 PM 50.9°F10.5°C 47.5°F8.6°C 88% 8.0 mph SW12.9 kmh SW 14.4 mph23.2 kmh 30.07 in1018.3 mb - 0.00 in0.0 mm 0.00 in0.0 mm
09:30 PM 50.8°F10.4°C 47.0°F8.3°C 87% 8.2 mph WSW13.2 kmh WSW 13.0 mph20.9 kmh 30.06 in1017.9 mb - 0.00 in0.0 mm 0.00 in0.0 mm
09:45 PM 50.7°F10.4°C 47.3°F8.5°C 88% 8.6 mph SW13.8 kmh SW 15.0 mph24.1 kmh 30.07 in1018.3 mb - 0.00 in0.0 mm 0.00 in0.0 mm
10:00 PM 50.5°F10.3°C 47.1°F8.4°C 88% 6.8 mph S10.9 kmh S 14.0 mph22.5 kmh 30.06 in1017.9 mb - 0.00 in0.0 mm 0.00 in0.0 mm
10:15 PM 50.3°F10.2°C 46.9°F8.3°C 88% 7.9 mph WSW12.7 kmh WSW 11.0 mph17.7 kmh 30.06 in1017.9 mb - 0.00 in0.0 mm 0.00 in0.0 mm
10:30 PM 50.2°F10.1°C 47.1°F8.4°C 89% 10.3 mph WSW16.6 kmh WSW 19.0 mph30.6 kmh 30.05 in1017.6 mb - 0.00 in0.0 mm 0.00 in0.0 mm
10:45 PM 50.4°F10.2°C 47.3°F8.5°C 89% 12.3 mph WSW19.8 kmh WSW 22.0 mph35.4 kmh 30.05 in1017.6 mb - 0.00 in0.0 mm 0.00 in0.0 mm
11:00 PM 50.5°F10.3°C 47.4°F8.6°C 89% 9.3 mph WSW15.0 kmh WSW 13.0 mph20.9 kmh 30.05 in1017.6 mb - 0.00 in0.0 mm 0.00 in0.0 mm
11:15 PM 50.5°F10.3°C 47.4°F8.6°C 89% 8.2 mph WSW13.2 kmh WSW 16.0 mph25.7 kmh 30.06 in1017.9 mb - 0.00 in0.0 mm 0.00 in0.0 mm
11:30 PM 50.6°F10.3°C 47.8°F8.8°C 90% 7.1 mph W11.4 kmh W 14.0 mph22.5 kmh 30.05 in1017.6 mb - 0.00 in0.0 mm 0.00 in0.0 mm
11:45 PM 50.6°F10.3°C 47.8°F8.8°C 90% 6.9 mph W11.1 kmh W 9.0 mph14.5 kmh 30.05 in1017.6 mb - 0.00 in0.0 mm 0.00 in0.0 mm